Time;durP1;ratioP1;P1;durP2;ratioP2;P2;SDS_P1;SDS_P2;PMS_P1;PMS_P2;Temp;Humidity;BMP_temperature;BMP_pressure;BME280_temperature;BME280_humidity;BME280_pressure;Samples;Min_cycle;Max_cycle;Signal;HPM_P1;HPM_P2
2022/04/17 00:00:25;;;;;;;8.80;4.57;;;7.60;85.20;;;;;;5016989;28;20235;-82
2022/04/17 00:02:52;;;;;;;10.60;4.93;;;7.60;84.40;;;;;;5017862;28;20204;-83
2022/04/17 00:05:17;;;;;;;10.70;4.83;;;7.50;84.70;;;;;;5020717;28;20208;-84
2022/04/17 00:07:44;;;;;;;11.27;5.53;;;7.40;84.60;;;;;;5020653;28;20228;-83
2022/04/17 00:10:10;;;;;;;10.53;4.77;;;7.40;85.00;;;;;;5019941;28;20226;-82
2022/04/17 00:12:39;;;;;;;7.77;3.93;;;7.40;84.90;;;;;;5019842;28;20181;-83
2022/04/17 00:15:06;;;;;;;7.13;4.83;;;7.40;84.90;;;;;;5019457;28;20226;-82
2022/04/17 00:17:32;;;;;;;11.30;5.10;;;7.40;86.00;;;;;;5019594;28;20203;-81
2022/04/17 00:19:58;;;;;;;12.47;4.93;;;7.40;85.70;;;;;;5019793;28;20200;-83
2022/04/17 00:22:24;;;;;;;10.97;5.47;;;7.40;85.20;;;;;;5020127;28;20177;-82
2022/04/17 00:24:49;;;;;;;12.60;5.50;;;7.40;85.50;;;;;;5019918;28;20181;-83
2022/04/17 00:27:15;;;;;;;12.47;5.00;;;7.40;85.90;;;;;;5019933;28;20211;-82
2022/04/17 00:29:44;;;;;;;11.13;5.30;;;7.30;85.90;;;;;;5019515;28;20216;-82
2022/04/17 00:32:10;;;;;;;12.00;5.27;;;7.30;86.50;;;;;;5020485;28;20192;-82
2022/04/17 00:34:39;;;;;;;14.37;5.63;;;7.30;86.30;;;;;;5019238;28;20208;-83
2022/04/17 00:37:05;;;;;;;11.50;5.70;;;7.30;85.90;;;;;;5019944;28;20213;-82
2022/04/17 00:39:31;;;;;;;8.70;5.27;;;7.30;86.10;;;;;;5018887;28;20177;-82
2022/04/17 00:41:59;;;;;;;13.97;5.90;;;7.30;86.30;;;;;;5018762;28;20523;-82
2022/04/17 00:44:25;;;;;;;12.63;5.40;;;7.20;86.10;;;;;;5018923;28;20239;-83
2022/04/17 00:46:50;;;;;;;11.90;5.57;;;7.10;88.40;;;;;;5018469;28;20278;-83
2022/04/17 00:49:16;;;;;;;11.23;5.60;;;7.10;87.60;;;;;;5018307;28;20179;-83
2022/04/17 00:51:47;;;;;;;12.50;5.67;;;7.10;88.50;;;;;;5017615;28;20181;-83
2022/04/17 00:54:15;;;;;;;9.27;5.27;;;6.90;88.80;;;;;;5018086;28;20204;-82
2022/04/17 00:56:41;;;;;;;16.00;6.13;;;6.80;89.20;;;;;;5018224;28;20262;-82
2022/04/17 00:59:09;;;;;;;13.87;5.90;;;6.70;89.50;;;;;;5018137;28;20176;-83
2022/04/17 01:01:36;;;;;;;10.53;5.50;;;6.80;89.50;;;;;;5017832;28;20533;-83
2022/04/17 01:04:03;;;;;;;9.47;5.23;;;6.60;89.40;;;;;;5017906;28;20657;-83
2022/04/17 01:06:30;;;;;;;11.67;5.47;;;6.50;90.70;;;;;;5017797;28;20655;-81
2022/04/17 01:08:56;;;;;;;10.60;5.47;;;6.40;91.50;;;;;;5017677;28;20642;-82
2022/04/17 01:11:22;;;;;;;13.90;6.03;;;6.20;92.20;;;;;;5017405;28;20259;-82
2022/04/17 01:13:48;;;;;;;12.60;6.23;;;6.20;93.10;;;;;;5016848;28;20254;-83
2022/04/17 01:16:16;;;;;;;13.10;5.37;;;6.40;92.80;;;;;;5017414;28;20243;-83
2022/04/17 01:19:00;;;;;;;10.43;5.63;;;6.50;91.90;;;;;;5017596;28;20600;-83
2022/04/17 01:21:30;;;;;;;13.47;5.60;;;6.40;92.10;;;;;;5018254;28;20203;-83
2022/04/17 01:26:56;;;;;;;13.60;6.27;;;6.10;92.90;;;;;;5036441;28;20212;-83
2022/04/17 01:29:22;;;;;;;11.33;6.07;;;6.30;92.50;;;;;;5018214;28;20188;-83
2022/04/17 01:31:47;;;;;;;12.57;5.80;;;6.30;92.60;;;;;;5018540;28;20184;-83
2022/04/17 01:34:17;;;;;;;11.70;5.80;;;6.30;92.80;;;;;;5018011;28;20692;-82
2022/04/17 01:36:44;;;;;;;11.73;6.13;;;6.20;92.90;;;;;;5017925;28;20543;-83
2022/04/17 01:39:10;;;;;;;11.47;6.50;;;6.00;93.30;;;;;;5018076;28;20245;-82
2022/04/17 01:41:36;;;;;;;11.87;6.00;;;6.00;93.60;;;;;;5017581;28;20181;-83
2022/04/17 01:44:02;;;;;;;11.83;5.80;;;6.10;93.90;;;;;;5018913;28;20552;-83
2022/04/17 01:46:28;;;;;;;9.87;5.83;;;6.10;93.60;;;;;;5020078;28;20199;-82
2022/04/17 01:48:54;;;;;;;13.80;5.90;;;6.10;93.50;;;;;;5020928;28;20184;-83
2022/04/17 01:51:20;;;;;;;11.33;6.27;;;6.10;93.60;;;;;;5020567;28;20181;-82
2022/04/17 01:53:46;;;;;;;11.97;6.20;;;5.90;94.40;;;;;;5020764;28;20213;-81
2022/04/17 01:56:11;;;;;;;10.77;5.60;;;5.80;95.30;;;;;;5020424;28;20241;-81
2022/04/17 01:58:37;;;;;;;13.57;6.37;;;5.70;95.30;;;;;;5021588;28;20182;-81
2022/04/17 02:01:03;;;;;;;10.70;5.97;;;5.60;96.40;;;;;;5020859;28;20266;-82
2022/04/17 02:03:29;;;;;;;13.07;6.47;;;5.50;96.70;;;;;;5021503;28;20202;-81
2022/04/17 02:05:55;;;;;;;11.47;5.87;;;5.40;97.80;;;;;;5021841;28;20211;-82
2022/04/17 02:08:21;;;;;;;12.27;6.17;;;5.40;98.90;;;;;;5021362;28;20179;-82
2022/04/17 02:10:46;;;;;;;13.70;6.03;;;5.40;97.60;;;;;;5022212;28;20184;-83
2022/04/17 02:13:12;;;;;;;11.40;6.60;;;5.40;97.70;;;;;;5021031;28;20181;-82
2022/04/17 02:15:38;;;;;;;11.27;6.27;;;5.40;97.60;;;;;;5020286;28;20228;-82
2022/04/17 02:18:03;;;;;;;12.83;6.30;;;5.30;98.20;;;;;;5020631;28;20624;-82
2022/04/17 02:20:29;;;;;;;13.00;6.80;;;5.30;98.90;;;;;;5020949;28;20187;-83
2022/04/17 02:22:55;;;;;;;12.00;6.10;;;5.10;98.90;;;;;;5021025;28;20236;-81
2022/04/17 02:25:20;;;;;;;15.10;6.97;;;5.10;99.10;;;;;;5021144;28;20189;-82
2022/04/17 02:27:46;;;;;;;14.80;6.70;;;5.00;99.90;;;;;;5020862;28;20182;-82
2022/04/17 02:30:12;;;;;;;10.67;6.23;;;5.10;99.90;;;;;;5019848;28;20190;-82
2022/04/17 02:32:37;;;;;;;10.17;5.93;;;5.00;99.90;;;;;;5019791;28;20176;-83
2022/04/17 02:35:03;;;;;;;13.30;6.37;;;4.90;99.90;;;;;;5020183;28;20213;-82
2022/04/17 02:37:29;;;;;;;13.03;6.83;;;4.80;99.90;;;;;;5020346;28;20200;-82
2022/04/17 02:39:56;;;;;;;13.47;6.23;;;4.80;99.90;;;;;;5018976;28;20542;-83
2022/04/17 02:42:22;;;;;;;15.10;6.50;;;4.90;99.90;;;;;;5016783;28;20173;-82
2022/04/17 02:44:48;;;;;;;13.33;7.00;;;4.80;99.90;;;;;;5016769;28;20174;-83
2022/04/17 02:49:58;;;;;;;15.50;6.70;;;4.80;99.90;;;;;;5034497;28;20655;-82
2022/04/17 02:52:23;;;;;;;13.13;6.40;;;4.60;99.90;;;;;;5016413;28;20183;-83
2022/04/17 02:54:49;;;;;;;16.17;6.57;;;4.70;99.90;;;;;;5016223;28;20214;-82
2022/04/17 02:57:15;;;;;;;15.37;7.20;;;4.70;99.90;;;;;;5016515;28;20202;-82
2022/04/17 02:59:41;;;;;;;12.37;6.40;;;4.70;99.90;;;;;;5016427;28;20207;-83
2022/04/17 03:07:34;;;;;;;14.57;6.57;;;4.50;99.90;;;;;;5034530;28;20536;-83
2022/04/17 03:10:02;;;;;;;15.77;6.70;;;4.50;99.90;;;;;;5016235;28;20178;-83
2022/04/17 03:12:28;;;;;;;13.17;6.90;;;4.50;99.90;;;;;;5016180;28;20184;-81
2022/04/17 03:14:53;;;;;;;11.63;7.07;;;4.50;99.90;;;;;;5016170;28;20291;-83
2022/04/17 03:17:19;;;;;;;12.20;6.50;;;4.40;99.90;;;;;;5016110;28;20669;-82
2022/04/17 03:19:46;;;;;;;12.27;7.10;;;4.40;99.90;;;;;;5015968;28;20194;-82
2022/04/17 03:22:11;;;;;;;17.23;7.07;;;4.30;99.90;;;;;;5015790;28;20305;-83
2022/04/17 03:24:37;;;;;;;12.37;6.43;;;4.30;99.90;;;;;;5015810;28;20227;-83
2022/04/17 03:27:03;;;;;;;13.53;6.97;;;4.20;99.90;;;;;;5015813;28;20193;-83
2022/04/17 03:29:28;;;;;;;14.53;6.70;;;4.20;99.90;;;;;;5015987;28;20697;-81
2022/04/17 03:31:54;;;;;;;16.93;6.70;;;4.20;99.90;;;;;;5016128;28;20265;-81
2022/04/17 03:34:19;;;;;;;16.80;7.57;;;4.10;99.90;;;;;;5015662;28;20213;-82
2022/04/17 03:36:47;;;;;;;14.13;6.63;;;4.10;99.90;;;;;;5015355;28;20194;-82
2022/04/17 03:39:12;;;;;;;14.37;6.80;;;4.20;99.90;;;;;;5015467;28;20180;-82
2022/04/17 03:41:38;;;;;;;14.30;7.03;;;4.10;99.90;;;;;;5015204;28;20274;-82
2022/04/17 03:44:04;;;;;;;14.27;7.07;;;4.00;99.90;;;;;;5018808;28;20178;-81
2022/04/17 03:46:30;;;;;;;14.33;6.87;;;3.90;99.90;;;;;;5019884;28;20233;-82
2022/04/17 03:48:56;;;;;;;13.40;7.53;;;3.90;99.90;;;;;;5020349;28;20178;-82
2022/04/17 03:51:21;;;;;;;14.80;7.30;;;3.80;99.90;;;;;;5019934;28;20181;-82
2022/04/17 03:53:47;;;;;;;12.07;7.40;;;3.80;99.90;;;;;;5020149;28;20213;-82
2022/04/17 03:56:12;;;;;;;15.27;7.10;;;3.90;99.90;;;;;;5019861;28;20200;-82
2022/04/17 03:58:38;;;;;;;17.53;7.63;;;3.80;99.90;;;;;;5019908;28;20177;-82
2022/04/17 04:01:04;;;;;;;15.40;7.80;;;3.80;99.90;;;;;;5020365;28;20643;-81
2022/04/17 04:03:29;;;;;;;14.33;7.37;;;3.80;99.90;;;;;;5017006;28;20178;-83
2022/04/17 04:05:55;;;;;;;15.80;8.00;;;3.70;99.90;;;;;;5015287;28;20937;-83
2022/04/17 04:08:21;;;;;;;14.63;7.73;;;3.70;99.90;;;;;;5015648;28;20213;-83
2022/04/17 04:10:47;;;;;;;14.57;6.87;;;3.80;99.90;;;;;;5015429;28;20213;-82
2022/04/17 04:13:13;;;;;;;15.40;7.63;;;3.80;99.90;;;;;;5014842;28;20210;-82
2022/04/17 04:15:39;;;;;;;18.53;7.63;;;3.80;99.90;;;;;;5015122;28;20225;-83
2022/04/17 04:18:04;;;;;;;15.80;8.00;;;3.60;99.90;;;;;;5015069;28;20193;-82
2022/04/17 04:20:30;;;;;;;13.93;7.83;;;3.50;99.90;;;;;;5015161;28;20236;-82
2022/04/17 04:22:56;;;;;;;19.07;7.67;;;3.50;99.90;;;;;;5014851;28;20631;-83
2022/04/17 04:25:22;;;;;;;14.37;7.10;;;3.60;99.90;;;;;;5014945;28;20178;-82
2022/04/17 04:30:32;;;;;;;14.13;7.10;;;3.60;99.90;;;;;;5032711;28;20201;-83
2022/04/17 04:32:57;;;;;;;15.60;7.37;;;3.60;99.90;;;;;;5014445;28;20639;-82
2022/04/17 04:35:26;;;;;;;15.17;7.40;;;3.50;99.90;;;;;;5014228;28;20560;-82
2022/04/17 04:37:52;;;;;;;13.90;7.50;;;3.60;99.90;;;;;;5014941;28;20182;-83
2022/04/17 04:40:18;;;;;;;16.03;7.93;;;3.60;99.90;;;;;;5014156;28;20247;-83
2022/04/17 04:42:44;;;;;;;13.20;7.17;;;3.60;99.90;;;;;;5014743;28;20594;-83
2022/04/17 04:47:54;;;;;;;17.17;7.83;;;3.40;99.90;;;;;;5032642;28;20673;-83
2022/04/17 04:50:20;;;;;;;15.40;8.27;;;3.50;99.90;;;;;;5017006;28;20178;-83
2022/04/17 04:52:45;;;;;;;16.30;8.27;;;3.60;99.90;;;;;;5037495;28;20224;-82
2022/04/17 04:55:11;;;;;;;16.73;7.40;;;3.70;99.90;;;;;;5017987;28;20209;-83
2022/04/17 04:57:37;;;;;;;14.97;8.13;;;3.70;99.90;;;;;;5018039;28;20178;-82
2022/04/17 05:00:08;;;;;;;15.13;7.83;;;3.60;99.90;;;;;;5018465;28;20550;-82
2022/04/17 05:02:41;;;;;;;15.80;7.73;;;3.60;99.90;;;;;;5018513;28;20170;-82
2022/04/17 05:05:07;;;;;;;19.97;8.30;;;3.70;99.90;;;;;;5018471;28;20325;-82
2022/04/17 05:07:34;;;;;;;21.60;9.63;;;3.80;99.90;;;;;;5018391;28;20190;-82
2022/04/17 05:10:02;;;;;;;23.83;8.67;;;3.80;99.90;;;;;;5018528;28;20170;-82
2022/04/17 05:12:27;;;;;;;19.23;7.77;;;3.80;99.90;;;;;;5018556;28;20550;-83
2022/04/17 05:14:54;;;;;;;17.20;8.03;;;4.00;99.90;;;;;;5018251;28;20201;-83
2022/04/17 05:17:19;;;;;;;17.97;9.13;;;4.10;99.90;;;;;;5018313;28;20293;-82
2022/04/17 05:19:45;;;;;;;20.23;7.83;;;4.20;99.90;;;;;;5018307;28;20675;-82
2022/04/17 05:22:15;;;;;;;14.33;8.03;;;4.30;99.90;;;;;;5017653;28;20179;-83
2022/04/17 05:24:45;;;;;;;19.47;8.07;;;4.30;99.90;;;;;;5017292;28;20182;-82
2022/04/17 05:27:12;;;;;;;18.30;8.50;;;4.40;99.90;;;;;;5017348;28;20201;-83
2022/04/17 05:29:39;;;;;;;14.83;8.37;;;4.70;99.90;;;;;;5017446;28;20252;-82
2022/04/17 05:32:05;;;;;;;13.33;7.50;;;4.90;99.90;;;;;;5017120;28;20180;-83
2022/04/17 05:34:31;;;;;;;13.03;7.90;;;5.20;99.90;;;;;;5017413;28;20235;-82
2022/04/17 05:36:56;;;;;;;15.50;7.50;;;5.30;99.90;;;;;;5017171;28;20669;-82
2022/04/17 05:39:22;;;;;;;17.30;7.57;;;5.40;99.90;;;;;;5017256;28;20262;-82
2022/04/17 05:41:49;;;;;;;16.10;8.67;;;5.30;99.90;;;;;;5016713;28;20177;-82
2022/04/17 05:44:15;;;;;;;19.60;8.23;;;5.30;99.90;;;;;;5018135;28;20199;-82
2022/04/17 05:46:42;;;;;;;15.03;7.73;;;5.40;99.90;;;;;;5017573;28;20193;-83
2022/04/17 05:49:08;;;;;;;18.47;8.40;;;5.60;99.90;;;;;;5017638;28;20740;-82
2022/04/17 05:51:35;;;;;;;15.43;7.57;;;5.90;99.90;;;;;;5017474;28;20227;-82
2022/04/17 05:54:05;;;;;;;14.87;7.57;;;5.80;99.90;;;;;;5017768;28;20302;-83
2022/04/17 05:56:31;;;;;;;13.53;7.37;;;6.20;99.90;;;;;;5017360;28;20288;-82
2022/04/17 05:58:57;;;;;;;16.23;7.50;;;6.30;99.90;;;;;;5017621;28;20177;-82
2022/04/17 06:01:24;;;;;;;15.27;6.60;;;6.70;99.90;;;;;;5016985;28;20201;-82
2022/04/17 06:03:50;;;;;;;12.20;6.83;;;6.80;99.90;;;;;;5017294;28;20236;-83
2022/04/17 06:06:19;;;;;;;15.37;7.80;;;7.10;99.90;;;;;;5017343;28;20220;-82
2022/04/17 06:08:46;;;;;;;14.30;7.30;;;7.50;99.90;;;;;;5017555;28;20181;-83
2022/04/17 06:11:12;;;;;;;11.03;7.00;;;8.10;99.20;;;;;;5018208;28;20650;-84
2022/04/17 06:13:38;;;;;;;12.50;7.27;;;8.40;98.60;;;;;;5019990;28;20635;-86
2022/04/17 06:16:04;;;;;;;13.30;7.50;;;8.30;97.30;;;;;;5019751;28;20208;-84
2022/04/17 06:18:30;;;;;;;11.17;6.60;;;8.50;96.70;;;;;;5020344;28;20197;-84
2022/04/17 06:20:56;;;;;;;11.63;6.60;;;8.60;97.00;;;;;;5020205;28;20695;-83
2022/04/17 06:23:21;;;;;;;13.07;6.67;;;8.90;96.20;;;;;;5019692;28;20538;-83
2022/04/17 06:25:47;;;;;;;11.93;7.03;;;9.10;95.40;;;;;;5020294;28;20289;-84
2022/04/17 06:28:13;;;;;;;12.33;7.53;;;9.50;94.60;;;;;;5037231;28;20174;-86
2022/04/17 06:30:38;;;;;;;12.13;7.10;;;9.30;94.70;;;;;;5019658;28;20205;-84
2022/04/17 06:33:04;;;;;;;11.90;7.60;;;9.70;94.20;;;;;;5019277;28;20180;-84
2022/04/17 06:35:30;;;;;;;10.20;7.13;;;10.60;93.00;;;;;;5018319;28;20661;-85
2022/04/17 06:37:57;;;;;;;12.57;7.43;;;10.30;92.10;;;;;;5019048;28;20604;-83
2022/04/17 06:40:28;;;;;;;14.43;7.17;;;11.00;92.00;;;;;;5018936;28;20170;-85
2022/04/17 06:42:57;;;;;;;10.50;7.07;;;10.80;90.70;;;;;;5019867;28;20182;-83
2022/04/17 06:45:25;;;;;;;11.43;6.70;;;10.90;91.30;;;;;;5018979;28;20174;-84
2022/04/17 06:47:51;;;;;;;10.90;6.70;;;10.90;90.50;;;;;;5019212;28;20189;-85
2022/04/17 06:50:18;;;;;;;11.70;6.70;;;11.60;90.10;;;;;;5018947;28;20185;-85
2022/04/17 06:52:44;;;;;;;10.20;6.53;;;11.30;87.60;;;;;;5019052;28;20208;-85
2022/04/17 06:55:11;;;;;;;11.60;6.70;;;11.00;87.50;;;;;;5018815;28;20209;-83
2022/04/17 06:57:39;;;;;;;10.40;6.77;;;11.40;87.10;;;;;;5018705;28;20236;-84
2022/04/17 07:00:10;;;;;;;9.40;6.13;;;11.80;86.60;;;;;;5020236;28;20202;-84
2022/04/17 07:02:40;;;;;;;10.03;6.57;;;11.70;85.60;;;;;;5019661;28;20185;-84
2022/04/17 07:05:07;;;;;;;11.27;6.27;;;12.00;85.90;;;;;;5019489;28;20188;-85
2022/04/17 07:07:33;;;;;;;9.40;6.20;;;12.40;83.60;;;;;;5017300;28;20198;-83
2022/04/17 07:09:59;;;;;;;8.83;6.20;;;12.00;84.10;;;;;;5019624;28;20213;-83
2022/04/17 07:12:24;;;;;;;12.63;6.47;;;12.30;82.10;;;;;;5019568;28;20182;-84
2022/04/17 07:14:50;;;;;;;9.30;6.07;;;12.00;84.40;;;;;;5020158;28;20198;-84
2022/04/17 07:17:16;;;;;;;9.37;6.07;;;12.90;83.00;;;;;;5019477;28;20201;-84
2022/04/17 07:19:42;;;;;;;10.40;5.90;;;12.70;81.20;;;;;;5017345;28;20253;-83
2022/04/17 07:22:07;;;;;;;8.65;6.05;;;12.50;82.10;;;;;;5020033;28;20249;-83
2022/04/17 07:24:33;;;;;;;7.50;5.67;;;12.80;81.10;;;;;;5019544;28;20204;-82
2022/04/17 07:27:00;;;;;;;11.97;6.73;;;12.40;81.50;;;;;;5019660;28;20193;-83
2022/04/17 07:29:27;;;;;;;10.13;6.47;;;13.20;82.70;;;;;;5019347;28;20560;-84
2022/04/17 07:31:53;;;;;;;8.57;6.50;;;13.50;80.70;;;;;;5018767;28;20269;-82
2022/04/17 07:34:22;;;;;;;9.87;6.37;;;14.20;78.50;;;;;;5019005;28;20558;-82
2022/04/17 07:36:52;;;;;;;8.00;5.30;;;13.30;78.40;;;;;;5019492;28;20646;-83
2022/04/17 07:39:18;;;;;;;10.37;6.37;;;12.80;78.30;;;;;;5019938;28;20177;-83
2022/04/17 07:41:46;;;;;;;9.00;5.73;;;13.20;77.30;;;;;;5036675;28;20169;-83
2022/04/17 07:44:12;;;;;;;10.67;5.70;;;13.40;79.40;;;;;;5019725;28;20173;-83
2022/04/17 07:46:42;;;;;;;10.80;6.10;;;13.60;77.70;;;;;;5019563;28;20193;-83
2022/04/17 07:49:08;;;;;;;9.57;5.70;;;13.70;78.50;;;;;;5019887;28;20607;-81
2022/04/17 07:51:34;;;;;;;7.63;5.53;;;14.10;76.30;;;;;;5018613;28;20180;-82
2022/04/17 07:54:01;;;;;;;9.93;5.73;;;13.40;77.70;;;;;;5020662;28;20630;-84
2022/04/17 07:56:27;;;;;;;9.20;5.63;;;14.20;76.50;;;;;;5018126;28;20286;-84
2022/04/17 07:58:53;;;;;;;8.67;5.60;;;13.80;75.00;;;;;;5018049;28;20173;-84
2022/04/17 08:01:18;;;;;;;9.77;5.30;;;14.00;73.80;;;;;;5018398;28;20169;-82
2022/04/17 08:06:10;;;;;;;7.53;5.40;;;14.00;75.90;;;;;;5036281;28;20232;-84
2022/04/17 08:08:40;;;;;;;8.35;5.25;;;14.60;73.90;;;;;;5016300;28;20216;-81
2022/04/17 08:11:07;;;;;;;9.90;5.45;;;14.40;72.40;;;;;;5018382;28;20397;-82
2022/04/17 08:13:34;;;;;;;8.45;5.30;;;15.10;73.90;;;;;;5014306;28;20185;-82
2022/04/17 08:16:01;;;;;;;6.57;4.80;;;14.90;71.60;;;;;;5013495;28;20280;-82
2022/04/17 08:18:27;;;;;;;6.55;4.68;;;15.10;68.90;;;;;;5014220;28;20532;-82
2022/04/17 08:20:53;;;;;;;8.20;5.35;;;15.00;68.00;;;;;;5015256;28;20169;-82
2022/04/17 08:23:19;;;;;;;6.43;4.57;;;15.80;68.20;;;;;;5033531;28;20205;-81
2022/04/17 08:25:46;;;;;;;7.05;4.50;;;15.40;67.70;;;;;;5018649;28;20667;-81
2022/04/17 08:28:12;;;;;;;8.45;4.45;;;15.10;69.70;;;;;;5018149;28;20186;-81
2022/04/17 08:30:38;;;;;;;6.32;4.38;;;14.90;67.90;;;;;;5017893;28;20181;-82
2022/04/17 08:33:06;;;;;;;6.83;4.10;;;15.00;66.90;;;;;;5018540;28;20182;-80
2022/04/17 08:35:33;;;;;;;12.93;5.10;;;15.60;66.90;;;;;;5019250;28;20206;-82
2022/04/17 08:38:00;;;;;;;9.03;4.57;;;15.70;68.60;;;;;;5018240;28;20216;-82
2022/04/17 08:40:27;;;;;;;7.73;4.57;;;15.80;66.70;;;;;;5018052;28;20666;-82
2022/04/17 08:42:53;;;;;;;6.90;4.77;;;16.00;66.90;;;;;;5018401;28;20646;-81
2022/04/17 08:45:19;;;;;;;5.73;4.30;;;15.90;67.20;;;;;;5018262;28;20174;-82
2022/04/17 08:47:46;;;;;;;7.33;4.53;;;16.00;66.90;;;;;;5019024;28;20182;-83
2022/04/17 08:50:14;;;;;;;8.43;4.80;;;15.50;67.60;;;;;;5018359;28;20174;-82
2022/04/17 08:52:41;;;;;;;7.23;4.87;;;15.80;66.60;;;;;;5018037;28;20228;-83
2022/04/17 08:55:07;;;;;;;8.17;4.93;;;16.30;68.60;;;;;;5019074;28;20206;-82
2022/04/17 08:57:33;;;;;;;7.20;4.57;;;16.00;69.10;;;;;;5019046;28;20197;-82
2022/04/17 08:59:59;;;;;;;6.63;4.30;;;14.90;66.10;;;;;;5036819;28;20170;-83
2022/04/17 09:02:25;;;;;;;6.97;4.47;;;16.40;67.60;;;;;;5018489;28;20322;-82
2022/04/17 09:04:50;;;;;;;5.87;4.20;;;15.90;65.10;;;;;;5018497;28;20230;-82
2022/04/17 09:07:16;;;;;;;7.07;4.50;;;16.60;67.50;;;;;;5018141;28;20198;-83
2022/04/17 09:09:52;;;;;;;8.30;4.97;;;15.70;65.80;;;;;;5018152;28;20178;-82
2022/04/17 09:12:26;;;;;;;8.27;5.00;;;15.50;66.70;;;;;;5018542;28;20189;-83
2022/04/17 09:14:55;;;;;;;8.87;4.67;;;16.10;64.60;;;;;;5018391;28;20234;-82
2022/04/17 09:17:32;;;;;;;10.40;4.73;;;15.70;66.60;;;;;;5018174;28;20244;-81
2022/04/17 09:19:58;;;;;;;10.63;4.97;;;16.70;67.40;;;;;;5017934;28;20323;-83
2022/04/17 09:22:23;;;;;;;7.40;5.13;;;16.50;64.00;;;;;;5017564;28;20174;-82
2022/04/17 09:24:49;;;;;;;8.30;4.77;;;16.40;64.10;;;;;;5018694;28;20614;-83
2022/04/17 09:27:15;;;;;;;7.27;5.10;;;16.20;66.90;;;;;;5018359;28;20655;-82
2022/04/17 09:29:41;;;;;;;7.65;4.80;;;16.60;66.20;;;;;;5017907;28;20181;-83
2022/04/17 09:32:11;;;;;;;6.00;4.65;;;17.10;65.50;;;;;;5018687;28;20209;-83
2022/04/17 09:34:56;;;;;;;7.43;4.80;;;17.00;62.60;;;;;;5018701;28;20216;-83
2022/04/17 09:37:23;;;;;;;7.97;4.57;;;16.70;65.20;;;;;;5018531;28;20190;-84
2022/04/17 09:39:52;;;;;;;7.40;4.70;;;17.40;63.30;;;;;;5019152;28;20273;-84
2022/04/17 09:42:25;;;;;;;7.63;4.68;;;16.80;64.10;;;;;;5019728;28;20174;-82
2022/04/17 09:44:54;;;;;;;8.32;4.25;;;16.70;64.50;;;;;;5019602;28;20664;-84
2022/04/17 09:47:26;;;;;;;5.72;3.92;;;16.40;63.40;;;;;;5019200;28;20208;-82
2022/04/17 09:49:57;;;;;;;6.45;4.68;;;17.00;61.20;;;;;;5019666;28;20634;-83
2022/04/17 09:52:29;;;;;;;8.07;4.47;;;16.20;59.20;;;;;;5018359;28;20178;-84
2022/04/17 09:54:55;;;;;;;7.80;5.25;;;16.20;64.20;;;;;;5019255;28;20209;-84
2022/04/17 09:57:33;;;;;;;7.40;5.03;;;16.40;62.20;;;;;;5016453;28;20194;-83
2022/04/17 10:00:14;;;;;;;7.45;4.90;;;16.90;62.90;;;;;;5016905;28;20173;-84
2022/04/17 10:02:45;;;;;;;7.47;4.78;;;17.50;64.40;;;;;;5017114;28;20181;-83
2022/04/17 10:05:14;;;;;;;8.73;5.10;;;17.70;65.60;;;;;;5017301;28;20169;-83
2022/04/17 10:07:45;;;;;;;9.05;4.50;;;17.70;60.20;;;;;;5017656;28;20188;-83
2022/04/17 10:10:12;;;;;;;7.60;4.57;;;17.00;59.40;;;;;;5017585;28;20316;-83
2022/04/17 10:12:47;;;;;;;8.68;4.30;;;17.20;61.10;;;;;;5018106;28;20253;-83
2022/04/17 10:15:13;;;;;;;8.35;4.35;;;17.20;59.00;;;;;;5017517;28;20209;-84
2022/04/17 10:17:44;;;;;;;5.65;3.97;;;16.60;57.20;;;;;;5017890;28;20180;-84
2022/04/17 10:20:12;;;;;;;6.28;4.20;;;17.20;56.60;;;;;;5017344;28;20174;-83
2022/04/17 10:22:40;;;;;;;6.72;4.32;;;17.00;55.80;;;;;;5018037;28;20245;-83
2022/04/17 10:25:10;;;;;;;6.07;4.10;;;17.10;57.80;;;;;;5017552;28;20543;-83
2022/04/17 10:27:38;;;;;;;6.53;4.60;;;17.10;55.50;;;;;;5017319;28;20200;-84
2022/04/17 10:30:20;;;;;;;5.47;4.20;;;17.90;56.90;;;;;;5018196;28;20174;-83
2022/04/17 10:33:27;;;;;;;7.43;4.43;;;18.80;55.20;;;;;;5017303;28;20178;-84
2022/04/17 10:36:05;;;;;;;6.27;4.60;;;17.90;54.40;;;;;;5004504;28;20221;-84
2022/04/17 10:39:01;;;;;;;7.40;4.30;;;17.70;56.60;;;;;;5017805;28;20184;-83
2022/04/17 10:41:27;;;;;;;8.13;5.07;;;17.30;55.60;;;;;;4930112;28;20205;-83
2022/04/17 10:43:56;;;;;;;8.43;4.77;;;16.80;57.40;;;;;;5017789;28;20185;-83
2022/04/17 10:46:22;;;;;;;8.50;4.40;;;17.40;58.50;;;;;;5015708;28;20277;-81
2022/04/17 10:48:49;;;;;;;7.25;4.15;;;16.90;58.70;;;;;;5015475;28;20193;-84
2022/04/17 10:51:19;;;;;;;7.07;4.88;;;17.00;57.60;;;;;;5014021;28;20183;-84
2022/04/17 10:53:51;;;;;;;7.15;4.38;;;17.60;56.70;;;;;;5015871;28;20329;-82
2022/04/17 10:56:18;;;;;;;6.95;4.57;;;17.20;56.00;;;;;;5016330;28;20205;-83
2022/04/17 10:58:54;;;;;;;6.50;4.13;;;18.00;56.80;;;;;;5018226;28;20536;-82
2022/04/17 11:01:41;;;;;;;7.03;4.43;;;16.80;57.20;;;;;;5016439;28;20219;-80
2022/04/17 11:04:21;;;;;;;9.07;5.47;;;17.90;59.10;;;;;;5016057;28;20188;-82
2022/04/17 11:07:12;;;;;;;7.45;4.70;;;17.70;57.30;;;;;;5030377;28;20275;-84
2022/04/17 11:09:44;;;;;;;8.18;5.05;;;19.00;57.00;;;;;;5016187;28;20186;-84
2022/04/17 11:12:19;;;;;;;6.57;4.40;;;18.00;55.10;;;;;;5033024;28;20204;-84
2022/04/17 11:15:17;;;;;;;5.05;4.00;;;18.30;56.60;;;;;;5016262;28;20207;-82
2022/04/17 11:17:43;;;;;;;6.97;3.97;;;18.10;54.90;;;;;;5015503;28;20174;-84
2022/04/17 11:20:09;;;;;;;5.75;4.43;;;17.30;57.10;;;;;;5017402;28;20182;-85
2022/04/17 11:22:37;;;;;;;5.55;4.13;;;17.70;55.20;;;;;;5017951;28;20174;-85
2022/04/17 11:25:13;;;;;;;14.18;4.20;;;17.80;55.20;;;;;;5016685;28;20174;-80
2022/04/17 11:27:43;;;;;;;6.63;3.53;;;17.80;58.20;;;;;;5017020;28;20169;-85
2022/04/17 11:30:14;;;;;;;6.43;3.85;;;17.60;53.50;;;;;;5016757;28;20264;-83
2022/04/17 11:32:40;;;;;;;6.28;4.22;;;17.90;53.50;;;;;;5016139;28;20171;-84
2022/04/17 11:35:08;;;;;;;7.75;4.10;;;17.60;54.80;;;;;;5017487;28;20574;-83
2022/04/17 11:37:34;;;;;;;7.03;4.00;;;17.80;54.70;;;;;;5016666;28;20221;-81
2022/04/17 11:40:13;;;;;;;5.72;3.45;;;17.40;54.80;;;;;;5016354;28;20180;-81
2022/04/17 11:42:50;;;;;;;5.53;3.85;;;17.70;54.70;;;;;;5016904;28;20224;-83
2022/04/17 11:45:25;;;;;;;6.72;3.63;;;17.70;54.30;;;;;;5016804;28;20181;-83
2022/04/17 11:47:51;;;;;;;4.70;3.72;;;17.70;54.70;;;;;;5017128;28;20578;-82
2022/04/17 11:50:23;;;;;;;4.53;3.45;;;18.30;56.10;;;;;;5016107;28;20232;-81
2022/04/17 11:52:50;;;;;;;6.80;4.40;;;19.20;52.70;;;;;;5016176;28;20599;-83
2022/04/17 11:55:16;;;;;;;5.60;4.22;;;19.90;51.60;;;;;;5016274;28;20768;-82
2022/04/17 11:57:42;;;;;;;5.70;3.70;;;20.60;51.60;;;;;;5016108;28;20174;-82
2022/04/17 12:00:08;;;;;;;6.80;3.90;;;20.60;51.90;;;;;;5022974;28;20709;-82
2022/04/17 12:02:36;;;;;;;7.00;4.20;;;19.90;51.40;;;;;;5023829;28;20430;-82
2022/04/17 12:05:10;;;;;;;11.57;4.82;;;18.10;53.60;;;;;;5024068;28;20693;-83
2022/04/17 12:07:36;;;;;;;7.50;4.68;;;17.90;55.20;;;;;;5023926;28;20177;-83
2022/04/17 12:10:14;;;;;;;7.18;4.35;;;18.00;56.30;;;;;;5024175;28;20170;-84
2022/04/17 12:12:44;;;;;;;7.97;4.07;;;18.10;55.60;;;;;;5021575;28;20173;-83
2022/04/17 12:15:15;;;;;;;6.13;4.15;;;17.80;55.00;;;;;;5021666;28;20229;-82
2022/04/17 12:17:41;;;;;;;6.35;3.97;;;17.70;56.70;;;;;;5022148;28;20170;-82
2022/04/17 12:20:14;;;;;;;6.30;3.78;;;17.50;55.40;;;;;;5022696;28;20178;-83
2022/04/17 12:22:41;;;;;;;8.40;3.45;;;17.40;55.10;;;;;;5022691;28;20176;-83
2022/04/17 12:25:21;;;;;;;4.53;3.20;;;18.20;58.80;;;;;;5022600;28;20169;-84
2022/04/17 12:27:52;;;;;;;2.75;2.55;;;18.40;56.50;;;;;;5022504;28;20181;-83
2022/04/17 12:30:22;;;;;;;7.20;3.33;;;18.80;56.00;;;;;;5022123;28;20185;-83
2022/04/17 12:32:49;;;;;;;4.68;3.10;;;18.00;54.70;;;;;;5023085;28;20181;-83
2022/04/17 12:35:29;;;;;;;6.60;2.95;;;17.40;54.40;;;;;;5020835;28;20351;-82
2022/04/17 12:38:05;;;;;;;3.70;2.93;;;17.30;53.80;;;;;;5020537;28;20195;-82
2022/04/17 12:40:36;;;;;;;5.30;3.03;;;17.00;54.00;;;;;;5020837;28;20204;-82
2022/04/17 12:43:21;;;;;;;7.63;3.40;;;17.10;56.10;;;;;;5020564;28;20669;-81
2022/04/17 12:46:03;;;;;;;5.40;2.80;;;16.80;55.90;;;;;;5022879;28;20200;-83
2022/04/17 12:48:31;;;;;;;6.57;2.70;;;17.20;56.30;;;;;;5022559;28;20256;-83
2022/04/17 12:50:59;;;;;;;4.80;2.93;;;17.60;56.70;;;;;;5022511;28;20174;-82
2022/04/17 12:53:25;;;;;;;4.47;2.60;;;17.40;53.40;;;;;;5023541;28;20546;-81
2022/04/17 12:55:53;;;;;;;3.07;2.60;;;17.00;53.20;;;;;;5021697;28;20209;-82
2022/04/17 12:58:20;;;;;;;4.07;2.80;;;16.60;54.00;;;;;;5021646;28;20174;-83
2022/04/17 13:01:05;;;;;;;5.10;2.30;;;16.80;53.20;;;;;;5021704;28;20589;-82
2022/04/17 13:03:35;;;;;;;6.97;2.50;;;17.00;55.10;;;;;;5019917;28;20665;-83
2022/04/17 13:06:02;;;;;;;7.30;2.70;;;17.00;49.30;;;;;;5022498;28;20193;-82
2022/04/17 13:08:28;;;;;;;2.80;2.40;;;16.90;50.50;;;;;;5021530;28;20181;-83